Time;durP1;ratioP1;P1;durP2;ratioP2;P2;SDS_P1;SDS_P2;PMS_P1;PMS_P2;Temp;Humidity;BMP_temperature;BMP_pressure;BME280_temperature;BME280_humidity;BME280_pressure;Samples;Min_cycle;Max_cycle;Signal;HPM_P1;HPM_P2
2023/03/19 00:00:12;;;;;;;22.73;14.60;;;9.10;99.90;;;;;;5085167;28;20068;-84
2023/03/19 00:02:39;;;;;;;21.10;14.00;;;9.10;99.90;;;;;;5085282;28;20102;-83
2023/03/19 00:05:07;;;;;;;21.20;14.98;;;9.10;99.90;;;;;;5085085;28;20048;-83
2023/03/19 00:07:33;;;;;;;20.85;14.57;;;9.10;99.90;;;;;;5085357;28;20071;-84
2023/03/19 00:10:00;;;;;;;24.70;15.00;;;9.00;99.90;;;;;;5101582;28;20041;-84
2023/03/19 00:12:27;;;;;;;21.90;15.23;;;9.10;99.90;;;;;;5101796;28;20041;-84
2023/03/19 00:14:53;;;;;;;21.52;14.65;;;9.10;99.90;;;;;;5101408;28;20102;-84
2023/03/19 00:17:20;;;;;;;21.08;14.73;;;9.10;99.90;;;;;;5102092;28;20037;-84
2023/03/19 00:19:47;;;;;;;20.73;14.70;;;9.00;99.90;;;;;;5101542;28;20064;-84
2023/03/19 00:22:14;;;;;;;22.65;14.00;;;9.00;99.90;;;;;;5085166;28;20055;-83
2023/03/19 00:24:40;;;;;;;19.42;13.70;;;9.00;99.90;;;;;;5085149;28;20036;-83
2023/03/19 00:27:07;;;;;;;20.63;14.05;;;9.00;99.90;;;;;;5084721;28;20070;-84
2023/03/19 00:29:35;;;;;;;19.38;13.90;;;8.90;99.90;;;;;;5101589;28;20102;-84
2023/03/19 00:32:02;;;;;;;17.73;13.30;;;8.80;99.90;;;;;;5087546;28;20040;-84
2023/03/19 00:34:29;;;;;;;19.25;13.55;;;8.80;99.90;;;;;;5088648;28;20072;-83
2023/03/19 00:36:55;;;;;;;19.08;12.80;;;8.70;99.90;;;;;;5105006;28;20076;-84
2023/03/19 00:39:22;;;;;;;20.90;14.43;;;8.70;99.90;;;;;;5088786;28;20519;-83
2023/03/19 00:41:49;;;;;;;19.63;13.93;;;8.60;99.90;;;;;;5088417;28;20053;-83
2023/03/19 00:44:18;;;;;;;19.85;13.50;;;8.60;99.90;;;;;;5105180;28;20123;-83
2023/03/19 00:46:45;;;;;;;23.88;13.95;;;8.60;99.90;;;;;;5089074;28;20139;-83
2023/03/19 00:49:13;;;;;;;23.92;14.35;;;8.60;99.90;;;;;;5088364;28;20077;-83
2023/03/19 00:51:42;;;;;;;21.67;13.95;;;8.60;99.90;;;;;;5088294;28;20037;-83
2023/03/19 00:54:12;;;;;;;20.25;13.60;;;8.60;99.90;;;;;;5071820;28;20048;-83
2023/03/19 00:56:39;;;;;;;20.92;13.90;;;8.60;99.90;;;;;;5088183;28;20037;-83
2023/03/19 00:59:06;;;;;;;21.38;14.07;;;8.70;99.90;;;;;;5088043;28;20106;-83
2023/03/19 01:01:33;;;;;;;21.80;14.38;;;8.70;99.90;;;;;;5104695;28;20056;-83
2023/03/19 01:04:00;;;;;;;22.15;14.57;;;8.70;99.90;;;;;;5104220;28;20045;-83
2023/03/19 01:06:27;;;;;;;24.10;15.18;;;8.80;99.90;;;;;;5088054;28;20041;-83
2023/03/19 01:08:53;;;;;;;22.50;15.18;;;8.80;99.90;;;;;;5071117;28;20041;-84
2023/03/19 01:11:20;;;;;;;21.58;14.85;;;8.80;99.90;;;;;;5088067;28;20040;-83
2023/03/19 01:13:47;;;;;;;23.70;14.82;;;8.80;99.90;;;;;;5087860;28;20037;-84
2023/03/19 01:16:14;;;;;;;22.73;14.68;;;8.80;99.90;;;;;;5087512;28;20039;-83
2023/03/19 01:18:40;;;;;;;21.88;15.02;;;8.80;99.90;;;;;;5104606;28;20041;-83
2023/03/19 01:21:07;;;;;;;24.58;15.70;;;8.90;99.90;;;;;;5087565;28;20448;-83
2023/03/19 01:23:34;;;;;;;23.52;14.35;;;8.90;99.90;;;;;;5088020;28;20099;-83
2023/03/19 01:26:01;;;;;;;27.25;15.45;;;8.90;99.90;;;;;;5087474;28;20041;-84
2023/03/19 01:28:28;;;;;;;22.55;15.88;;;8.90;99.90;;;;;;5087837;28;20036;-83
2023/03/19 01:30:59;;;;;;;24.27;14.85;;;8.90;99.90;;;;;;5088063;28;20095;-84
2023/03/19 01:33:26;;;;;;;25.35;15.85;;;8.90;99.90;;;;;;5087439;28;20050;-84
2023/03/19 01:35:54;;;;;;;22.58;14.43;;;8.90;99.90;;;;;;5087897;28;20033;-83
2023/03/19 01:38:20;;;;;;;22.02;15.20;;;8.90;99.90;;;;;;5103962;28;20044;-84
2023/03/19 01:40:48;;;;;;;25.08;14.95;;;8.90;99.90;;;;;;5087754;28;20029;-83
2023/03/19 01:43:22;;;;;;;24.88;15.43;;;8.90;99.90;;;;;;5070268;28;20041;-83
2023/03/19 01:45:54;;;;;;;27.00;15.27;;;8.90;99.90;;;;;;5104086;28;20413;-83
2023/03/19 01:48:40;;;;;;;25.05;14.45;;;8.90;99.90;;;;;;5070611;28;20056;-83
2023/03/19 01:51:10;;;;;;;24.17;15.73;;;8.90;99.90;;;;;;5103477;28;20044;-83
2023/03/19 01:53:40;;;;;;;24.88;15.98;;;8.90;99.90;;;;;;5103830;28;20568;-83
2023/03/19 01:56:46;;;;;;;24.33;15.23;;;9.00;99.90;;;;;;5103328;28;20044;-83
2023/03/19 01:59:25;;;;;;;24.33;15.07;;;9.00;99.90;;;;;;5052396;28;20112;-83
2023/03/19 02:02:05;;;;;;;20.52;14.25;;;9.00;99.90;;;;;;5032977;28;20064;-83
2023/03/19 02:04:34;;;;;;;20.23;13.95;;;8.90;99.90;;;;;;5060009;28;20053;-83
2023/03/19 02:07:02;;;;;;;23.95;15.73;;;9.00;99.90;;;;;;5050738;28;20135;-83
2023/03/19 02:09:30;;;;;;;25.38;16.33;;;9.00;99.90;;;;;;5066725;28;20095;-83
2023/03/19 02:11:59;;;;;;;20.58;14.25;;;9.00;99.90;;;;;;5069068;28;20153;-83
2023/03/19 02:14:26;;;;;;;23.80;15.05;;;8.90;99.90;;;;;;5053647;28;20045;-83
2023/03/19 02:16:54;;;;;;;23.30;14.98;;;9.00;99.90;;;;;;5070198;28;20037;-83
2023/03/19 02:19:39;;;;;;;25.42;15.27;;;9.00;99.90;;;;;;5070008;28;20083;-83
2023/03/19 02:22:09;;;;;;;23.27;15.70;;;9.00;99.90;;;;;;5069738;28;20083;-84
2023/03/19 02:24:52;;;;;;;24.15;16.15;;;9.00;99.90;;;;;;5070253;28;20037;-83
2023/03/19 02:27:19;;;;;;;21.88;14.38;;;9.00;99.90;;;;;;5069749;28;20063;-83
2023/03/19 02:29:45;;;;;;;23.00;15.48;;;9.00;99.90;;;;;;5053619;28;20131;-83
2023/03/19 02:32:12;;;;;;;23.67;15.10;;;9.00;99.90;;;;;;5069368;28;20045;-84
2023/03/19 02:34:41;;;;;;;22.85;16.00;;;9.00;99.90;;;;;;5053163;28;20041;-84
2023/03/19 02:37:23;;;;;;;22.50;15.50;;;9.00;99.90;;;;;;5102466;28;20508;-84
2023/03/19 02:40:09;;;;;;;22.92;14.98;;;9.00;99.90;;;;;;5102859;28;20485;-83
2023/03/19 02:42:36;;;;;;;21.45;14.65;;;9.00;99.90;;;;;;5103112;28;20569;-83
2023/03/19 02:45:04;;;;;;;22.23;14.82;;;9.00;99.90;;;;;;5086029;28;20131;-83
2023/03/19 02:47:30;;;;;;;25.70;16.02;;;9.00;99.90;;;;;;5086198;28;20047;-84
2023/03/19 02:49:57;;;;;;;23.95;15.85;;;9.00;99.90;;;;;;5102557;28;20044;-84
2023/03/19 02:52:24;;;;;;;27.92;16.17;;;9.00;99.90;;;;;;5085634;28;20051;-84
2023/03/19 02:54:50;;;;;;;23.05;15.23;;;9.00;99.90;;;;;;5085762;28;20047;-83
2023/03/19 02:57:17;;;;;;;23.08;14.80;;;9.00;99.90;;;;;;5085631;28;20033;-84
2023/03/19 02:59:44;;;;;;;22.13;14.52;;;9.00;99.90;;;;;;5102933;28;20040;-83
2023/03/19 03:02:11;;;;;;;28.45;15.75;;;9.00;99.90;;;;;;5102110;28;20056;-83
2023/03/19 03:04:38;;;;;;;21.80;14.80;;;8.90;99.90;;;;;;5086090;28;20041;-83
2023/03/19 03:07:06;;;;;;;21.92;15.50;;;9.00;99.90;;;;;;5085933;28;20087;-83
2023/03/19 03:09:35;;;;;;;23.25;15.52;;;8.90;99.90;;;;;;5085776;28;20044;-83
2023/03/19 03:12:03;;;;;;;26.80;16.15;;;8.90;99.90;;;;;;5086270;28;20041;-83
2023/03/19 03:14:29;;;;;;;22.92;15.30;;;9.00;99.90;;;;;;5085441;28;20554;-84
2023/03/19 03:16:57;;;;;;;22.67;15.63;;;9.00;99.90;;;;;;5085837;28;20037;-84
2023/03/19 03:19:24;;;;;;;25.83;15.50;;;9.00;99.90;;;;;;5085298;28;20532;-84
2023/03/19 03:21:50;;;;;;;24.65;16.08;;;9.00;99.90;;;;;;5085668;28;20124;-84
2023/03/19 03:24:17;;;;;;;24.10;15.77;;;9.00;99.90;;;;;;5068789;28;20033;-84
2023/03/19 03:26:44;;;;;;;23.67;15.30;;;9.00;99.90;;;;;;5102224;28;20086;-84
2023/03/19 03:29:11;;;;;;;24.75;15.65;;;9.00;99.90;;;;;;5085813;28;20098;-84
2023/03/19 03:31:37;;;;;;;24.42;15.77;;;9.00;99.90;;;;;;5084993;28;20037;-83
2023/03/19 03:34:04;;;;;;;24.92;15.50;;;9.00;99.90;;;;;;5086018;28;20033;-84
2023/03/19 03:36:31;;;;;;;22.02;14.68;;;9.00;99.90;;;;;;5068578;28;20041;-84
2023/03/19 03:38:58;;;;;;;28.25;15.55;;;9.00;99.90;;;;;;5085597;28;20045;-84
2023/03/19 03:41:25;;;;;;;25.38;14.95;;;9.00;99.90;;;;;;5101858;28;20073;-84
2023/03/19 03:43:52;;;;;;;24.90;14.63;;;9.00;99.90;;;;;;5085595;28;20103;-83
2023/03/19 03:46:18;;;;;;;22.50;14.88;;;8.90;99.90;;;;;;5085162;28;20128;-84
2023/03/19 03:48:48;;;;;;;19.88;13.85;;;8.90;99.90;;;;;;5085548;28;20041;-84
2023/03/19 03:51:14;;;;;;;24.63;15.20;;;8.90;99.90;;;;;;5102309;28;20037;-84
2023/03/19 03:53:41;;;;;;;21.08;13.82;;;8.90;99.90;;;;;;5085202;28;20045;-84
2023/03/19 03:56:08;;;;;;;22.05;14.45;;;8.90;99.90;;;;;;5069166;28;20083;-83
2023/03/19 03:58:35;;;;;;;24.08;14.85;;;8.90;99.90;;;;;;5052154;28;20128;-83
2023/03/19 04:01:01;;;;;;;22.10;14.40;;;8.90;99.90;;;;;;5052129;28;20053;-83
2023/03/19 04:03:28;;;;;;;24.00;14.65;;;8.90;99.90;;;;;;5052397;28;20131;-84
2023/03/19 04:05:55;;;;;;;24.27;14.57;;;8.90;99.90;;;;;;5069693;28;20037;-83
2023/03/19 04:08:22;;;;;;;23.02;14.40;;;8.80;99.90;;;;;;5105427;28;20123;-83
2023/03/19 04:10:49;;;;;;;21.85;14.43;;;8.80;99.90;;;;;;5055714;28;20405;-83
2023/03/19 04:13:16;;;;;;;23.20;14.63;;;8.80;99.90;;;;;;5056047;28;20087;-83
2023/03/19 04:15:43;;;;;;;22.02;14.32;;;8.80;99.90;;;;;;5072154;28;20045;-84
2023/03/19 04:18:10;;;;;;;22.08;13.82;;;8.70;99.90;;;;;;5072355;28;20860;-82
2023/03/19 04:20:37;;;;;;;22.42;13.90;;;8.70;99.90;;;;;;5055866;28;20108;-83
2023/03/19 04:23:04;;;;;;;20.95;13.35;;;8.70;99.90;;;;;;5088934;28;20045;-83
2023/03/19 04:25:30;;;;;;;20.73;12.93;;;8.70;99.90;;;;;;5088658;28;20044;-84
2023/03/19 04:27:57;;;;;;;21.08;13.18;;;8.70;99.90;;;;;;5088790;28;20157;-83
2023/03/19 04:30:24;;;;;;;19.90;13.00;;;8.70;99.90;;;;;;5088225;28;20033;-84
2023/03/19 04:32:51;;;;;;;19.42;12.40;;;8.80;99.90;;;;;;5088650;28;20044;-83
2023/03/19 04:35:17;;;;;;;17.83;12.27;;;8.80;99.90;;;;;;5088807;28;20124;-83
2023/03/19 04:37:47;;;;;;;18.08;11.95;;;8.80;99.90;;;;;;5088798;28;20037;-83
2023/03/19 04:40:15;;;;;;;19.67;12.20;;;8.80;99.90;;;;;;5105940;28;20505;-84
2023/03/19 04:42:43;;;;;;;18.25;11.30;;;8.90;99.90;;;;;;5088355;28;20049;-83
2023/03/19 04:45:10;;;;;;;18.08;11.95;;;8.90;99.90;;;;;;5088600;28;20222;-83
2023/03/19 04:47:37;;;;;;;18.40;10.32;;;8.90;99.90;;;;;;5088138;28;20044;-83
2023/03/19 04:50:05;;;;;;;15.52;10.32;;;8.90;99.90;;;;;;5088340;28;20095;-83
2023/03/19 04:52:32;;;;;;;14.50;9.90;;;8.90;99.90;;;;;;5087735;28;20068;-84
2023/03/19 04:54:59;;;;;;;17.33;10.00;;;8.90;99.90;;;;;;5088250;28;20049;-84
2023/03/19 04:57:26;;;;;;;16.17;9.50;;;9.00;99.90;;;;;;5088242;28;20044;-83
2023/03/19 04:59:52;;;;;;;13.55;8.93;;;9.00;99.90;;;;;;5088057;28;20095;-83
2023/03/19 05:02:20;;;;;;;14.57;7.82;;;9.00;99.90;;;;;;5121798;28;20068;-83
2023/03/19 05:04:47;;;;;;;12.23;8.13;;;9.00;99.90;;;;;;5104521;28;20120;-84
2023/03/19 05:07:14;;;;;;;12.43;7.50;;;9.00;99.90;;;;;;5071340;28;20128;-84
2023/03/19 05:09:42;;;;;;;12.18;7.40;;;9.00;99.90;;;;;;5104311;28;20102;-84
2023/03/19 05:12:11;;;;;;;12.95;7.63;;;9.00;99.90;;;;;;5087835;28;20045;-84
2023/03/19 05:14:37;;;;;;;12.40;7.55;;;9.00;99.90;;;;;;5104767;28;20489;-83
2023/03/19 05:17:04;;;;;;;16.45;6.60;;;8.90;99.90;;;;;;5087394;28;20040;-83
2023/03/19 05:19:31;;;;;;;10.93;6.60;;;8.80;99.90;;;;;;5070582;28;20037;-84
2023/03/19 05:21:58;;;;;;;13.27;6.70;;;8.80;99.90;;;;;;5071489;28;20044;-83
2023/03/19 05:24:24;;;;;;;10.30;6.47;;;8.70;99.90;;;;;;5087825;28;20088;-83
2023/03/19 05:26:51;;;;;;;9.73;6.85;;;8.70;99.90;;;;;;5071049;28;20048;-84
2023/03/19 05:29:18;;;;;;;13.68;6.07;;;8.70;99.90;;;;;;5087463;28;20055;-84
2023/03/19 05:31:45;;;;;;;15.30;6.50;;;8.70;99.90;;;;;;5070153;28;20037;-84
2023/03/19 05:34:11;;;;;;;12.77;6.68;;;8.60;99.90;;;;;;5087149;28;20091;-84
2023/03/19 05:36:38;;;;;;;10.98;6.10;;;8.60;99.90;;;;;;5087054;28;20444;-84
2023/03/19 05:39:05;;;;;;;10.60;5.88;;;8.60;99.90;;;;;;5087081;28;20052;-84
2023/03/19 05:41:32;;;;;;;11.63;6.72;;;8.60;99.90;;;;;;5103471;28;20045;-84
2023/03/19 05:43:59;;;;;;;10.48;6.53;;;8.60;99.90;;;;;;5087009;28;20037;-83
2023/03/19 05:46:26;;;;;;;9.77;6.10;;;8.60;99.90;;;;;;5070429;28;20036;-84
2023/03/19 05:48:53;;;;;;;12.32;6.70;;;8.60;99.90;;;;;;5070214;28;20540;-84
2023/03/19 05:51:19;;;;;;;9.45;5.93;;;8.50;99.90;;;;;;5086839;28;20125;-84
2023/03/19 05:53:46;;;;;;;8.70;5.82;;;8.50;99.90;;;;;;5070067;28;20576;-83
2023/03/19 05:56:13;;;;;;;9.07;5.70;;;8.50;99.90;;;;;;5070737;28;20048;-84
2023/03/19 05:58:39;;;;;;;9.32;5.95;;;8.40;99.90;;;;;;5070189;28;20040;-84
2023/03/19 06:01:06;;;;;;;9.23;5.80;;;8.40;99.90;;;;;;5070152;28;20444;-83
2023/03/19 06:03:33;;;;;;;8.60;5.22;;;8.40;99.90;;;;;;5086861;28;20065;-83
2023/03/19 06:06:00;;;;;;;9.95;5.32;;;8.30;99.90;;;;;;5086676;28;20052;-83
2023/03/19 06:08:26;;;;;;;8.55;5.22;;;8.30;99.90;;;;;;5087229;28;20045;-83
2023/03/19 06:10:53;;;;;;;7.38;5.10;;;8.20;99.90;;;;;;5086615;28;20041;-83
2023/03/19 06:13:20;;;;;;;8.88;5.32;;;8.20;99.90;;;;;;5070279;28;20067;-83
2023/03/19 06:15:48;;;;;;;10.90;5.55;;;8.20;99.90;;;;;;5070123;28;20366;-83
2023/03/19 06:18:16;;;;;;;8.65;5.63;;;8.10;99.90;;;;;;5070218;28;20037;-83
2023/03/19 06:20:43;;;;;;;9.98;5.55;;;8.10;99.90;;;;;;5070133;28;20039;-84
2023/03/19 06:23:09;;;;;;;8.55;5.35;;;8.00;99.90;;;;;;5086563;28;20126;-84
2023/03/19 06:25:36;;;;;;;10.52;5.35;;;8.00;99.90;;;;;;5070159;28;20498;-83
2023/03/19 06:28:04;;;;;;;8.07;5.07;;;8.00;99.90;;;;;;5068919;28;20041;-83
2023/03/19 06:30:32;;;;;;;10.60;5.28;;;8.00;99.90;;;;;;5069392;28;20047;-83
2023/03/19 06:32:59;;;;;;;8.38;4.97;;;8.00;99.90;;;;;;5086369;28;20095;-83
2023/03/19 06:35:26;;;;;;;8.57;5.28;;;8.00;99.90;;;;;;5069622;28;20405;-84
2023/03/19 06:37:53;;;;;;;8.02;5.22;;;8.00;99.90;;;;;;5069516;28;20036;-84
2023/03/19 06:40:19;;;;;;;7.78;4.80;;;8.00;99.90;;;;;;5102845;28;20045;-83
2023/03/19 06:42:47;;;;;;;8.68;5.07;;;7.90;99.90;;;;;;5085653;28;20037;-84
2023/03/19 06:45:15;;;;;;;10.95;5.32;;;7.90;99.90;;;;;;5069663;28;20489;-83
2023/03/19 06:47:42;;;;;;;8.45;4.25;;;7.90;99.90;;;;;;5069655;28;20087;-84
2023/03/19 06:50:15;;;;;;;7.28;4.95;;;7.90;99.90;;;;;;5102585;28;20132;-84
2023/03/19 06:52:42;;;;;;;7.93;4.65;;;7.80;99.90;;;;;;5085590;28;20145;-82
2023/03/19 06:55:09;;;;;;;9.35;5.10;;;7.90;99.90;;;;;;5069127;28;20072;-84
2023/03/19 06:57:35;;;;;;;9.50;4.85;;;7.90;99.90;;;;;;5086143;28;20041;-83
2023/03/19 07:00:04;;;;;;;8.73;5.20;;;7.90;99.90;;;;;;5085529;28;20033;-84
2023/03/19 07:02:30;;;;;;;8.00;5.03;;;7.90;99.90;;;;;;5086175;28;20136;-83
2023/03/19 07:04:57;;;;;;;11.50;5.30;;;7.90;99.90;;;;;;5085792;28;20144;-83
2023/03/19 07:07:24;;;;;;;8.63;5.18;;;8.00;99.90;;;;;;5086137;28;20045;-83
2023/03/19 07:09:51;;;;;;;8.10;4.72;;;8.00;99.90;;;;;;5085572;28;20033;-84
2023/03/19 07:12:17;;;;;;;8.85;5.05;;;8.00;99.90;;;;;;5069024;28;20094;-83
2023/03/19 07:14:44;;;;;;;10.07;4.90;;;8.00;99.90;;;;;;5085602;28;20167;-83
2023/03/19 07:17:11;;;;;;;8.05;5.38;;;8.00;99.90;;;;;;5085379;28;20081;-83
2023/03/19 07:19:38;;;;;;;11.45;6.30;;;8.10;99.90;;;;;;5085526;28;20052;-83
2023/03/19 07:22:05;;;;;;;9.63;5.35;;;8.10;99.90;;;;;;5085573;28;20037;-84
2023/03/19 07:24:32;;;;;;;9.95;6.20;;;8.10;99.90;;;;;;5069179;28;20080;-83
2023/03/19 07:26:58;;;;;;;10.70;6.80;;;8.20;99.90;;;;;;5069202;28;20077;-84
2023/03/19 07:29:25;;;;;;;10.60;7.05;;;8.20;99.90;;;;;;5085976;28;20041;-84
2023/03/19 07:31:52;;;;;;;11.75;6.82;;;8.30;99.90;;;;;;5085265;28;20076;-84
2023/03/19 07:34:19;;;;;;;13.57;8.10;;;8.40;99.90;;;;;;5085206;28;20162;-83
2023/03/19 07:36:46;;;;;;;10.75;6.78;;;8.40;99.90;;;;;;5068605;28;20037;-83
2023/03/19 07:39:12;;;;;;;13.35;7.20;;;8.60;99.90;;;;;;5068593;28;20102;-83
2023/03/19 07:41:40;;;;;;;12.52;7.30;;;8.60;99.90;;;;;;5085070;28;20405;-84
2023/03/19 07:44:06;;;;;;;12.85;7.72;;;8.70;99.90;;;;;;5085283;28;20041;-84
2023/03/19 07:46:33;;;;;;;11.52;6.72;;;8.90;99.90;;;;;;5085616;28;20029;-84
2023/03/19 07:49:00;;;;;;;14.23;7.43;;;9.00;99.90;;;;;;5068065;28;20068;-84
2023/03/19 07:51:27;;;;;;;13.23;7.75;;;9.10;99.90;;;;;;5069258;28;20033;-84
2023/03/19 07:53:53;;;;;;;12.13;6.95;;;9.20;99.90;;;;;;5085744;28;20037;-84
2023/03/19 07:56:20;;;;;;;13.20;7.95;;;9.30;99.90;;;;;;5086109;28;20042;-85
2023/03/19 07:58:47;;;;;;;11.38;7.10;;;9.40;99.90;;;;;;5102194;28;20040;-84
2023/03/19 08:01:14;;;;;;;13.15;7.43;;;9.60;99.90;;;;;;5084964;28;20060;-84
2023/03/19 08:03:41;;;;;;;13.48;7.78;;;9.60;99.90;;;;;;5085255;28;20052;-84
2023/03/19 08:06:07;;;;;;;12.13;7.55;;;9.70;99.90;;;;;;5067176;28;20034;-84
2023/03/19 08:08:35;;;;;;;12.10;7.43;;;9.80;99.90;;;;;;5049357;28;20033;-84
2023/03/19 08:11:02;;;;;;;12.73;6.95;;;9.90;99.90;;;;;;5048594;28;20099;-84
2023/03/19 08:13:30;;;;;;;11.40;7.45;;;10.10;99.90;;;;;;5062495;28;20064;-84
2023/03/19 08:15:57;;;;;;;11.10;6.80;;;10.20;99.90;;;;;;5065387;28;20486;-83
2023/03/19 08:18:23;;;;;;;13.63;7.47;;;10.20;99.90;;;;;;5065226;28;20038;-83
2023/03/19 08:20:50;;;;;;;11.30;7.05;;;10.30;99.90;;;;;;5065087;28;20049;-83
2023/03/19 08:23:18;;;;;;;11.63;7.40;;;10.30;99.90;;;;;;5067949;28;20057;-83
2023/03/19 08:25:45;;;;;;;12.32;7.35;;;10.50;99.90;;;;;;5084926;28;20048;-82
2023/03/19 08:28:11;;;;;;;13.73;8.50;;;10.50;99.90;;;;;;5051699;28;20045;-82
2023/03/19 08:30:38;;;;;;;10.68;7.15;;;10.50;99.90;;;;;;5083773;28;20458;-82
2023/03/19 08:33:05;;;;;;;9.98;6.75;;;10.50;99.90;;;;;;5066212;28;20073;-81
2023/03/19 08:35:32;;;;;;;11.85;7.28;;;10.60;99.90;;;;;;5067125;28;20116;-83
2023/03/19 08:37:59;;;;;;;11.48;7.32;;;10.70;99.90;;;;;;5083505;28;20147;-83
2023/03/19 08:40:25;;;;;;;15.38;8.15;;;10.70;99.90;;;;;;5100769;28;20494;-83
2023/03/19 08:42:53;;;;;;;14.43;8.23;;;10.70;99.90;;;;;;5135860;28;20043;-83
2023/03/19 08:45:20;;;;;;;13.15;7.93;;;10.80;99.90;;;;;;5084576;28;20044;-83
2023/03/19 08:47:47;;;;;;;11.68;8.32;;;10.80;99.90;;;;;;5051895;28;20044;-83
2023/03/19 08:50:15;;;;;;;12.90;8.32;;;11.00;99.90;;;;;;5051684;28;20037;-83
2023/03/19 08:52:42;;;;;;;11.43;7.50;;;11.10;99.90;;;;;;5053814;28;20408;-83
2023/03/19 08:55:09;;;;;;;11.15;7.40;;;11.30;99.90;;;;;;5054252;28;20124;-84
2023/03/19 08:57:36;;;;;;;10.68;7.10;;;11.50;99.90;;;;;;5071382;28;20033;-84
2023/03/19 09:00:06;;;;;;;12.20;7.70;;;11.70;99.90;;;;;;5055146;28;20033;-84
2023/03/19 09:02:33;;;;;;;12.77;7.47;;;11.80;99.90;;;;;;5054723;28;20075;-83
2023/03/19 09:05:00;;;;;;;10.07;6.55;;;11.80;99.90;;;;;;5038054;28;20049;-83
2023/03/19 09:07:26;;;;;;;10.60;6.70;;;11.60;99.90;;;;;;5037896;28;20442;-83
2023/03/19 09:09:53;;;;;;;11.85;7.38;;;11.50;99.90;;;;;;5070774;28;20127;-84
2023/03/19 09:12:20;;;;;;;12.93;7.35;;;11.50;99.90;;;;;;5086718;28;20549;-84
2023/03/19 09:14:47;;;;;;;10.20;6.90;;;11.50;99.90;;;;;;5104014;28;20048;-83
2023/03/19 09:17:14;;;;;;;10.35;6.25;;;11.70;99.90;;;;;;5103765;28;20592;-83
2023/03/19 09:19:41;;;;;;;11.80;6.60;;;11.80;99.90;;;;;;5087148;28;20045;-82
2023/03/19 09:22:08;;;;;;;10.75;6.13;;;11.90;99.90;;;;;;5070376;28;20048;-83
2023/03/19 09:24:35;;;;;;;9.68;6.40;;;11.90;99.90;;;;;;5037339;28;20036;-83
2023/03/19 09:27:01;;;;;;;10.27;6.60;;;11.80;99.90;;;;;;5038015;28;20397;-83
2023/03/19 09:29:28;;;;;;;11.07;6.15;;;11.70;99.90;;;;;;5054006;28;20037;-82
2023/03/19 09:31:55;;;;;;;8.73;5.78;;;11.60;99.90;;;;;;5071171;28;20501;-83
2023/03/19 09:34:22;;;;;;;9.63;5.82;;;11.50;99.90;;;;;;5087341;28;20127;-83
2023/03/19 09:36:49;;;;;;;9.40;6.10;;;11.40;99.90;;;;;;5070910;28;20045;-83
2023/03/19 09:39:15;;;;;;;9.15;5.55;;;11.40;99.90;;;;;;5086560;28;20498;-83
2023/03/19 09:41:59;;;;;;;8.98;5.82;;;11.30;99.90;;;;;;5070267;28;20048;-82
2023/03/19 09:44:29;;;;;;;8.55;5.78;;;11.20;99.90;;;;;;5070096;28;20040;-83
2023/03/19 09:46:59;;;;;;;8.60;5.88;;;11.30;99.90;;;;;;5069971;28;20568;-83
2023/03/19 09:49:46;;;;;;;11.75;5.90;;;11.40;99.90;;;;;;5086583;28;20114;-83
2023/03/19 09:52:27;;;;;;;9.93;5.90;;;11.60;99.90;;;;;;5070108;28;20044;-83
2023/03/19 09:54:59;;;;;;;9.43;6.05;;;11.80;99.90;;;;;;5103547;28;20036;-83
2023/03/19 09:57:28;;;;;;;8.15;5.38;;;12.20;99.90;;;;;;5069751;28;20409;-84
2023/03/19 09:59:55;;;;;;;9.10;5.78;;;12.30;99.90;;;;;;5070270;28;20037;-84
2023/03/19 10:02:43;;;;;;;11.52;5.80;;;12.30;99.90;;;;;;5069392;28;20061;-83
2023/03/19 10:05:24;;;;;;;10.13;5.10;;;12.20;99.90;;;;;;5086136;28;20063;-84
2023/03/19 10:08:20;;;;;;;8.32;4.97;;;12.20;99.90;;;;;;5069877;28;20084;-83
2023/03/19 10:11:06;;;;;;;8.05;5.20;;;12.10;99.90;;;;;;5070808;28;20037;-83
2023/03/19 10:14:15;;;;;;;7.93;5.43;;;12.20;99.90;;;;;;5069631;28;20037;-83
2023/03/19 10:16:46;;;;;;;8.25;5.25;;;12.20;99.90;;;;;;5103322;28;20044;-83
2023/03/19 10:19:17;;;;;;;7.63;4.90;;;12.10;99.90;;;;;;5070300;28;20087;-83
2023/03/19 10:21:59;;;;;;;7.38;5.20;;;12.10;99.90;;;;;;5103252;28;20037;-83
2023/03/19 10:24:30;;;;;;;7.70;4.85;;;12.00;99.90;;;;;;5069761;28;20053;-82
2023/03/19 10:27:00;;;;;;;8.70;5.65;;;12.00;99.90;;;;;;5103385;28;20040;-83
2023/03/19 10:29:27;;;;;;;11.10;5.57;;;12.00;99.90;;;;;;5069738;28;20056;-83
2023/03/19 10:32:14;;;;;;;9.88;5.68;;;12.00;99.90;;;;;;5069321;28;20041;-83
2023/03/19 10:34:43;;;;;;;11.27;6.60;;;12.00;99.90;;;;;;5070042;28;20048;-83
2023/03/19 10:37:29;;;;;;;10.30;6.13;;;12.10;99.90;;;;;;5086272;28;20032;-84
2023/03/19 10:39:58;;;;;;;9.27;6.00;;;12.20;99.90;;;;;;5086403;28;20131;-83
2023/03/19 10:43:06;;;;;;;11.25;6.43;;;12.20;99.90;;;;;;5102512;28;20775;-83
2023/03/19 10:45:36;;;;;;;10.20;6.53;;;12.40;99.90;;;;;;5078624;28;20084;-84
2023/03/19 10:48:04;;;;;;;12.00;5.93;;;12.50;99.90;;;;;;5069412;28;20036;-83
2023/03/19 10:50:40;;;;;;;9.48;6.07;;;12.50;99.90;;;;;;5102235;28;20097;-83
2023/03/19 10:53:36;;;;;;;9.48;6.03;;;12.60;99.90;;;;;;5086039;28;20106;-83
2023/03/19 10:56:03;;;;;;;;;;;12.60;99.90;;;;;;5073366;28;20053;-84
2023/03/19 10:58:33;;;;;;;8.38;5.55;;;12.60;99.90;;;;;;5085033;28;20467;-84
2023/03/19 11:01:10;;;;;;;8.88;5.93;;;12.60;99.90;;;;;;5101458;28;20849;-83
2023/03/19 11:03:48;;;;;;;9.35;5.82;;;12.60;99.90;;;;;;5096044;28;20512;-83
2023/03/19 11:06:36;;;;;;;9.70;5.85;;;12.60;99.90;;;;;;5068880;28;20041;-84
2023/03/19 11:09:12;;;;;;;8.07;5.40;;;12.60;99.90;;;;;;5069373;28;20049;-83
2023/03/19 11:11:47;;;;;;;8.27;5.40;;;12.70;99.90;;;;;;5099575;28;20493;-83
2023/03/19 11:14:14;;;;;;;8.90;5.63;;;12.70;99.90;;;;;;5101614;28;20037;-83
2023/03/19 11:17:14;;;;;;;7.82;5.32;;;12.90;99.90;;;;;;5136086;28;20150;-82
2023/03/19 11:19:51;;;;;;;9.55;4.78;;;13.20;99.90;;;;;;5100657;28;20099;-82
2023/03/19 11:22:36;;;;;;;8.90;4.70;;;13.20;99.90;;;;;;5068291;28;20051;-82
2023/03/19 11:25:14;;;;;;;7.00;4.50;;;13.20;99.90;;;;;;5069120;28;20048;-82
2023/03/19 11:27:40;;;;;;;7.45;5.05;;;13.20;99.90;;;;;;5068642;28;20052;-82
2023/03/19 11:30:18;;;;;;;7.53;4.95;;;13.30;99.90;;;;;;5068155;28;20040;-82
2023/03/19 11:32:54;;;;;;;6.07;4.50;;;13.40;99.90;;;;;;5052038;28;20044;-82
2023/03/19 11:35:25;;;;;;;7.40;4.90;;;13.40;99.90;;;;;;5068369;28;20037;-82
2023/03/19 11:37:59;;;;;;;7.65;4.63;;;13.60;99.90;;;;;;5068438;28;20136;-82
2023/03/19 11:40:54;;;;;;;6.30;4.13;;;13.80;99.90;;;;;;5068189;28;20054;-83
2023/03/19 11:43:59;;;;;;;6.22;3.97;;;14.10;99.90;;;;;;5067921;28;20037;-82
2023/03/19 11:46:37;;;;;;;7.43;4.50;;;14.30;99.90;;;;;;5076232;28;20394;-82
2023/03/19 11:49:18;;;;;;;7.95;4.40;;;14.30;99.90;;;;;;5068550;28;20036;-82
2023/03/19 11:52:23;;;;;;;6.50;3.67;;;14.30;99.90;;;;;;5100983;28;20751;-82
2023/03/19 11:55:09;;;;;;;6.82;4.28;;;14.10;99.90;;;;;;5080765;28;20049;-82
2023/03/19 11:57:51;;;;;;;7.07;4.00;;;14.20;99.90;;;;;;5101061;28;20037;-82
2023/03/19 12:00:42;;;;;;;6.82;3.88;;;14.30;99.90;;;;;;5101259;28;20095;-83
2023/03/19 12:03:21;;;;;;;5.75;4.10;;;14.10;99.90;;;;;;5102213;28;20045;-82
2023/03/19 12:06:26;;;;;;;7.43;4.38;;;14.00;99.90;;;;;;5101501;28;20048;-82
2023/03/19 12:08:56;;;;;;;6.63;4.28;;;13.80;99.90;;;;;;5101906;28;20131;-82
2023/03/19 12:11:29;;;;;;;7.07;4.50;;;13.70;99.90;;;;;;5068101;28;20048;-82
2023/03/19 12:14:31;;;;;;;6.07;4.13;;;13.70;99.90;;;;;;5067959;28;20058;-82
2023/03/19 12:17:07;;;;;;;7.00;4.55;;;13.70;99.90;;;;;;5067752;28;20414;-82
2023/03/19 12:19:49;;;;;;;;;;;13.80;99.90;;;;;;5068340;28;20041;-83
2023/03/19 12:22:35;;;;;;;7.00;4.32;;;13.90;99.90;;;;;;5101420;28;19924;-82
2023/03/19 12:25:23;;;;;;;7.95;4.72;;;13.80;99.90;;;;;;5068438;28;20075;-82
2023/03/19 12:28:19;;;;;;;6.47;4.45;;;13.70;99.90;;;;;;5070375;28;20063;-82
2023/03/19 12:31:26;;;;;;;7.00;4.80;;;13.60;99.90;;;;;;5071494;28;20425;-82
2023/03/19 12:34:05;;;;;;;7.65;4.63;;;13.50;99.90;;;;;;5071969;28;20033;-82
2023/03/19 12:36:37;;;;;;;6.68;4.55;;;13.40;99.90;;;;;;5088241;28;20043;-83
2023/03/19 12:39:11;;;;;;;9.10;4.90;;;13.30;99.90;;;;;;5105209;28;20148;-82
2023/03/19 12:41:42;;;;;;;7.43;5.18;;;13.10;99.90;;;;;;5072054;28;20039;-83
2023/03/19 12:44:20;;;;;;;7.70;5.35;;;13.20;99.90;;;;;;5071424;28;20094;-82
2023/03/19 12:47:01;;;;;;;7.35;4.93;;;13.20;99.90;;;;;;5071369;28;20061;-82
2023/03/19 12:49:35;;;;;;;9.88;4.85;;;13.30;99.90;;;;;;5104678;28;20040;-83
2023/03/19 12:52:38;;;;;;;7.85;5.35;;;13.40;99.90;;;;;;5071535;28;20037;-82
2023/03/19 12:55:13;;;;;;;7.82;5.70;;;13.50;99.90;;;;;;5072874;28;20044;-82
2023/03/19 12:57:49;;;;;;;11.50;6.78;;;13.50;99.90;;;;;;5104138;28;20044;-83
2023/03/19 13:00:29;;;;;;;16.80;10.20;;;13.50;99.90;;;;;;5070836;28;20040;-82